createdAt,value
2023-02-17T00:00:19.353Z,19.77
2023-02-17T00:01:24.747Z,17.85
2023-02-17T00:02:27.357Z,19.27
2023-02-17T00:03:30.076Z,20.35
2023-02-17T00:04:34.353Z,18.40
2023-02-17T00:05:39.874Z,22.05
2023-02-17T00:06:42.397Z,20.27
2023-02-17T00:07:44.917Z,18.33
2023-02-17T00:08:48.041Z,18.17
2023-02-17T00:09:50.558Z,19.10
2023-02-17T00:10:58.243Z,18.88
2023-02-17T00:12:00.767Z,18.88
2023-02-17T00:13:03.285Z,18.50
2023-02-17T00:14:05.929Z,19.35
2023-02-17T00:15:09.167Z,19.00
2023-02-17T00:16:17.863Z,18.50
2023-02-17T00:17:20.451Z,20.65
2023-02-17T00:18:23.818Z,17.38
2023-02-17T00:19:26.582Z,17.92
2023-02-17T00:20:29.826Z,17.92
2023-02-17T00:21:33.057Z,18.20
2023-02-17T00:22:36.661Z,17.48
2023-02-17T00:23:39.662Z,17.48
2023-02-17T00:24:42.783Z,17.80
2023-02-17T00:25:45.789Z,17.92
2023-02-17T00:26:49.273Z,18.02
2023-02-17T00:27:52.270Z,17.60
2023-02-17T00:28:55.403Z,17.02
2023-02-17T00:29:58.542Z,16.88
2023-02-17T00:31:11.462Z,17.67
2023-02-17T00:32:14.691Z,17.65
2023-02-17T00:33:18.679Z,16.52
2023-02-17T00:34:21.802Z,17.60
2023-02-17T00:35:24.925Z,17.15
2023-02-17T00:36:28.657Z,16.55
2023-02-17T00:37:31.887Z,15.73
2023-02-17T00:38:35.259Z,17.40
2023-02-17T00:39:38.373Z,16.63
2023-02-17T00:40:42.813Z,16.63
2023-02-17T00:41:45.940Z,14.90
2023-02-17T00:42:49.422Z,15.88
2023-02-17T00:43:53.023Z,14.52
2023-02-17T00:44:58.064Z,15.73
2023-02-17T00:46:01.182Z,16.10
2023-02-17T00:47:04.314Z,15.90
2023-02-17T00:48:07.438Z,15.80
2023-02-17T00:49:16.918Z,15.90
2023-02-17T00:50:20.155Z,16.63
2023-02-17T00:51:24.472Z,15.93
2023-02-17T00:52:27.840Z,15.60
2023-02-17T00:53:31.325Z,14.77
2023-02-17T00:54:36.357Z,14.63
2023-02-17T00:55:39.838Z,14.52
2023-02-17T00:56:43.713Z,15.25
2023-02-17T00:57:46.924Z,15.70
2023-02-17T00:58:50.299Z,15.98
2023-02-17T00:59:53.409Z,16.08
2023-02-17T01:00:57.732Z,15.02
2023-02-17T01:02:00.813Z,15.27
2023-02-17T01:03:06.131Z,15.25
2023-02-17T01:04:09.372Z,14.73
2023-02-17T01:05:12.016Z,15.57
2023-02-17T01:06:22.937Z,14.82
2023-02-17T01:08:27.798Z,13.13
2023-02-17T01:09:30.747Z,14.48
2023-02-17T01:10:33.266Z,14.57
2023-02-17T01:11:36.634Z,13.85
2023-02-17T01:12:39.797Z,15.07
2023-02-17T01:13:42.272Z,14.50
2023-02-17T01:14:45.032Z,14.60
2023-02-17T01:15:50.213Z,14.90
2023-02-17T01:16:52.836Z,15.07
2023-02-17T01:17:56.483Z,14.00
2023-02-17T01:18:59.241Z,13.27
2023-02-17T01:20:02.247Z,14.60
2023-02-17T01:21:04.966Z,13.73
2023-02-17T01:22:10.412Z,13.63
2023-02-17T01:23:14.245Z,14.48
2023-02-17T01:24:17.009Z,12.55
2023-02-17T01:25:19.770Z,12.35
2023-02-17T01:26:24.812Z,12.80
2023-02-17T01:27:27.448Z,12.68
2023-02-17T01:28:31.496Z,13.07
2023-02-17T01:29:34.064Z,13.40
2023-02-17T01:30:36.698Z,12.02
2023-02-17T01:31:40.549Z,13.68
2023-02-17T01:32:47.054Z,14.02
2023-02-17T01:33:50.735Z,13.02
2023-02-17T01:34:53.253Z,12.75
2023-02-17T01:35:55.899Z,13.55
2023-02-17T01:36:58.543Z,13.40
2023-02-17T01:38:01.533Z,13.23
2023-02-17T01:39:04.903Z,13.77
2023-02-17T01:40:08.269Z,12.32
2023-02-17T01:41:11.855Z,13.13
2023-02-17T01:42:22.418Z,12.32
2023-02-17T01:43:25.300Z,12.75
2023-02-17T01:44:31.540Z,12.30
2023-02-17T01:45:46.301Z,11.52
2023-02-17T01:46:51.408Z,11.98
2023-02-17T01:48:01.896Z,12.20
2023-02-17T01:49:27.821Z,11.68
2023-02-17T01:50:39.098Z,12.07
2023-02-17T01:51:42.449Z,12.40
2023-02-17T01:52:45.459Z,13.10
2023-02-17T01:54:06.822Z,12.80
2023-02-17T01:55:13.788Z,10.98
2023-02-17T01:56:17.507Z,12.68
2023-02-17T01:57:23.753Z,11.98
2023-02-17T01:58:27.585Z,12.10
2023-02-17T01:59:31.197Z,12.07
2023-02-17T02:00:35.506Z,11.25
2023-02-17T02:01:39.586Z,12.05
2023-02-17T02:02:46.195Z,13.75
2023-02-17T02:03:52.437Z,12.35
2023-02-17T02:04:55.391Z,12.02
2023-02-17T02:05:59.634Z,12.73
2023-02-17T02:07:03.349Z,12.90
2023-02-17T02:08:06.591Z,13.52
2023-02-17T02:09:19.712Z,12.73
2023-02-17T02:10:22.320Z,12.52
2023-02-17T02:11:24.838Z,12.60
2023-02-17T02:12:33.120Z,11.32
2023-02-17T02:13:37.444Z,11.95
2023-02-17T02:14:39.966Z,12.73
2023-02-17T02:15:57.486Z,12.93
2023-02-17T02:17:14.051Z,11.77
2023-02-17T02:18:29.174Z,13.25
2023-02-17T02:19:48.975Z,12.25
2023-02-17T02:21:16.103Z,12.07
2023-02-17T02:22:39.983Z,11.18
2023-02-17T02:23:54.862Z,11.88
2023-02-17T02:25:30.384Z,12.60
2023-02-17T02:27:13.829Z,11.02
2023-02-17T02:28:23.925Z,11.38
2023-02-17T02:29:57.816Z,11.38
2023-02-17T02:31:35.719Z,10.85
2023-02-17T02:32:57.402Z,11.13
2023-02-17T02:34:05.562Z,11.63
2023-02-17T02:35:36.531Z,12.43
2023-02-17T02:36:52.368Z,12.00
2023-02-17T02:38:10.367Z,12.43
2023-02-17T02:39:21.774Z,11.80
2023-02-17T02:40:32.214Z,12.40
2023-02-17T02:41:42.653Z,12.18
2023-02-17T02:42:47.335Z,11.75
2023-02-17T02:43:50.590Z,12.43
2023-02-17T02:44:53.821Z,10.95
2023-02-17T02:45:57.340Z,11.88
2023-02-17T02:47:06.790Z,12.80
2023-02-17T02:48:10.143Z,12.35
2023-02-17T02:49:13.387Z,11.85
2023-02-17T02:50:39.550Z,13.10
2023-02-17T02:51:55.154Z,11.65
2023-02-17T02:53:25.513Z,12.88
2023-02-17T02:54:49.520Z,12.00
2023-02-17T02:56:24.199Z,11.65
2023-02-17T02:57:54.919Z,10.98
2023-02-17T03:00:26.128Z,10.38
2023-02-17T03:02:01.526Z,11.00
2023-02-17T03:03:18.016Z,11.23
2023-02-17T03:04:53.254Z,11.95
2023-02-17T03:06:17.267Z,11.93
2023-02-17T03:07:27.458Z,12.25
2023-02-17T03:08:38.859Z,11.00
2023-02-17T03:09:42.097Z,11.07
2023-02-17T03:10:51.705Z,11.73
2023-02-17T03:11:58.836Z,13.55
2023-02-17T03:13:03.950Z,11.95
2023-02-17T03:14:16.117Z,12.52
2023-02-17T03:15:30.599Z,13.35
2023-02-17T03:16:37.207Z,12.73
2023-02-17T03:17:40.008Z,12.57
2023-02-17T03:18:43.250Z,13.13
2023-02-17T03:19:47.688Z,12.70
2023-02-17T03:20:56.518Z,12.75
2023-02-17T03:22:23.772Z,11.68
2023-02-17T03:23:26.328Z,12.30
2023-02-17T03:24:28.967Z,12.52
2023-02-17T03:25:31.848Z,13.73
2023-02-17T03:26:34.726Z,14.07
2023-02-17T03:27:37.328Z,14.00
2023-02-17T03:28:39.891Z,13.57
2023-02-17T03:29:43.015Z,15.25
2023-02-17T03:30:45.663Z,13.30
2023-02-17T03:31:48.455Z,12.98
2023-02-17T03:32:51.063Z,14.00
2023-02-17T03:33:53.657Z,14.70
2023-02-17T03:34:56.334Z,14.20
2023-02-17T03:35:59.700Z,14.23
2023-02-17T03:37:02.224Z,15.25
2023-02-17T03:38:06.417Z,15.02
2023-02-17T03:39:09.065Z,14.35
2023-02-17T03:40:11.815Z,15.48
2023-02-17T03:41:14.456Z,16.65
2023-02-17T03:42:17.338Z,15.43
2023-02-17T03:43:20.096Z,13.32
2023-02-17T03:44:22.860Z,16.38
2023-02-17T03:45:25.976Z,16.67
2023-02-17T03:46:28.505Z,15.77
2023-02-17T03:47:31.148Z,15.48
2023-02-17T03:48:33.783Z,14.68
2023-02-17T03:49:36.422Z,15.30
2023-02-17T03:50:39.061Z,16.33
2023-02-17T03:51:41.704Z,16.55
2023-02-17T03:52:45.660Z,17.00
2023-02-17T03:53:49.038Z,15.25
2023-02-17T03:54:52.743Z,17.67
2023-02-17T03:55:55.267Z,18.40
2023-02-17T03:56:59.221Z,17.73
2023-02-17T03:58:01.753Z,17.73
2023-02-17T03:59:04.744Z,17.17
2023-02-17T04:00:07.989Z,15.88
2023-02-17T04:01:15.846Z,17.58
2023-02-17T04:02:18.426Z,17.38
2023-02-17T04:03:21.188Z,16.80
2023-02-17T04:04:23.767Z,16.55
2023-02-17T04:05:26.346Z,16.48
2023-02-17T04:06:28.871Z,18.42
2023-02-17T04:07:31.395Z,17.98
2023-02-17T04:08:34.151Z,16.65
2023-02-17T04:09:36.792Z,18.63
2023-02-17T04:10:39.317Z,18.02
2023-02-17T04:11:42.567Z,18.92
2023-02-17T04:12:45.213Z,17.58
2023-02-17T04:13:47.841Z,16.27
2023-02-17T04:14:50.368Z,17.15
2023-02-17T04:15:53.404Z,15.55
2023-02-17T04:16:55.882Z,18.73
2023-02-17T04:17:58.412Z,17.90
2023-02-17T04:19:01.054Z,17.73
2023-02-17T04:20:05.038Z,18.02
2023-02-17T04:21:08.009Z,16.73
2023-02-17T04:22:10.789Z,17.02
2023-02-17T04:23:14.612Z,16.27
2023-02-17T04:24:17.374Z,17.27
2023-02-17T04:25:20.019Z,16.42
2023-02-17T04:26:22.782Z,15.65
2023-02-17T04:27:25.903Z,16.42
2023-02-17T04:28:29.623Z,16.70
2023-02-17T04:29:33.835Z,17.80
2023-02-17T04:30:36.827Z,17.02
2023-02-17T04:31:39.935Z,15.48
2023-02-17T04:32:43.080Z,15.82
2023-02-17T04:33:46.311Z,16.15
2023-02-17T04:34:49.432Z,16.55
2023-02-17T04:35:54.247Z,16.83
2023-02-17T04:36:57.359Z,15.52
2023-02-17T04:38:00.479Z,16.80
2023-02-17T04:39:03.600Z,16.65
2023-02-17T04:40:10.721Z,16.05
2023-02-17T04:41:13.806Z,16.17
2023-02-17T04:42:17.163Z,16.25
2023-02-17T04:43:20.286Z,13.52
2023-02-17T04:44:23.410Z,15.98
2023-02-17T04:45:26.529Z,15.75
2023-02-17T04:46:29.817Z,16.23
2023-02-17T04:47:33.371Z,16.88
2023-02-17T04:48:36.492Z,16.15
2023-02-17T04:49:39.618Z,17.17
2023-02-17T04:50:42.737Z,15.90
2023-02-17T04:51:45.987Z,15.48
2023-02-17T04:52:49.581Z,16.02
2023-02-17T04:53:52.702Z,18.58
2023-02-17T04:54:55.945Z,17.58
2023-02-17T04:55:59.071Z,17.27
2023-02-17T04:57:02.322Z,16.67
2023-02-17T04:58:05.562Z,16.10
2023-02-17T04:59:08.927Z,16.05
2023-02-17T05:00:12.632Z,17.05
2023-02-17T05:01:16.270Z,16.48
2023-02-17T05:02:19.476Z,17.15
2023-02-17T05:03:23.320Z,16.98
2023-02-17T05:04:26.840Z,18.63
2023-02-17T05:05:30.406Z,17.02
2023-02-17T05:06:33.644Z,17.58
2023-02-17T05:07:36.645Z,18.00
2023-02-17T05:08:40.006Z,17.63
2023-02-17T05:09:42.895Z,16.27
2023-02-17T05:10:45.890Z,16.95
2023-02-17T05:11:48.532Z,16.67
2023-02-17T05:12:51.293Z,17.23
2023-02-17T05:13:53.946Z,17.17
2023-02-17T05:14:56.582Z,17.80
2023-02-17T05:15:59.609Z,18.38
2023-02-17T05:17:02.393Z,15.77
2023-02-17T05:18:05.343Z,14.85
2023-02-17T05:19:07.915Z,17.05
2023-02-17T05:20:10.913Z,16.52
2023-02-17T05:21:13.504Z,15.77
2023-02-17T05:22:16.192Z,16.35
2023-02-17T05:23:18.730Z,16.92
2023-02-17T05:24:21.478Z,16.23
2023-02-17T05:25:24.119Z,16.13
2023-02-17T05:26:27.080Z,16.45
2023-02-17T05:27:29.640Z,14.73
2023-02-17T05:28:32.162Z,14.82
2023-02-17T05:29:35.137Z,17.17
2023-02-17T05:30:37.761Z,15.10
2023-02-17T05:31:40.541Z,16.15
2023-02-17T05:32:43.448Z,14.70
2023-02-17T05:33:46.048Z,16.15
2023-02-17T05:34:48.692Z,15.23
2023-02-17T05:35:51.365Z,14.88
2023-02-17T05:36:54.007Z,14.43
2023-02-17T05:37:56.532Z,14.38
2023-02-17T05:38:59.289Z,14.57
2023-02-17T05:40:01.905Z,14.35
2023-02-17T05:41:04.808Z,15.15
2023-02-17T05:42:07.570Z,14.95
2023-02-17T05:43:10.091Z,15.57
2023-02-17T05:44:12.741Z,15.20
2023-02-17T05:45:15.495Z,14.70
2023-02-17T05:46:18.189Z,14.77
2023-02-17T05:47:20.893Z,15.27
2023-02-17T05:48:23.532Z,13.63
2023-02-17T05:49:26.299Z,14.50
2023-02-17T05:50:29.037Z,13.93
2023-02-17T05:51:38.788Z,13.93
2023-02-17T05:52:41.661Z,14.30
2023-02-17T05:53:45.023Z,14.88
2023-02-17T05:54:47.568Z,13.93
2023-02-17T05:55:50.200Z,14.57
2023-02-17T05:56:52.819Z,15.13
2023-02-17T05:57:55.345Z,14.20
2023-02-17T05:58:58.224Z,13.30
2023-02-17T06:00:00.746Z,14.00
2023-02-17T06:01:11.546Z,13.57
2023-02-17T06:02:14.075Z,14.65
2023-02-17T06:03:17.093Z,13.38
2023-02-17T06:04:19.617Z,14.02
2023-02-17T06:05:22.112Z,14.23
2023-02-17T06:06:24.755Z,13.27
2023-02-17T06:07:27.272Z,13.73
2023-02-17T06:08:30.272Z,13.55
2023-02-17T06:09:32.798Z,13.45
2023-02-17T06:10:35.330Z,12.82
2023-02-17T06:11:37.721Z,12.93
2023-02-17T06:12:40.603Z,12.45
2023-02-17T06:13:43.240Z,13.02
2023-02-17T06:14:45.880Z,12.40
2023-02-17T06:15:48.429Z,13.77
2023-02-17T06:16:51.045Z,11.48
2023-02-17T06:17:53.569Z,13.07
2023-02-17T06:18:56.102Z,13.70
2023-02-17T06:19:58.737Z,12.27
2023-02-17T06:21:01.496Z,10.88
2023-02-17T06:22:04.134Z,12.13
2023-02-17T06:23:06.773Z,12.18
2023-02-17T06:24:09.561Z,13.55
2023-02-17T06:25:12.300Z,13.50
2023-02-17T06:26:15.066Z,10.98
2023-02-17T06:27:18.087Z,11.18
2023-02-17T06:28:21.809Z,12.05
2023-02-17T06:29:24.667Z,11.05
2023-02-17T06:30:28.089Z,13.23
2023-02-17T06:31:31.099Z,12.82
2023-02-17T06:32:34.987Z,12.00
2023-02-17T06:33:38.113Z,13.77
2023-02-17T06:34:41.110Z,10.82
2023-02-17T06:35:48.674Z,13.23
2023-02-17T06:36:51.796Z,11.75
2023-02-17T06:37:54.976Z,11.88
2023-02-17T06:38:58.157Z,11.73
2023-02-17T06:40:01.287Z,12.57
2023-02-17T06:41:04.518Z,13.52
2023-02-17T06:42:07.643Z,11.65
2023-02-17T06:43:10.882Z,11.45
2023-02-17T06:44:14.004Z,12.48
2023-02-17T06:45:17.372Z,11.30
2023-02-17T06:46:20.486Z,11.77
2023-02-17T06:47:23.608Z,12.02
2023-02-17T06:48:26.730Z,13.35
2023-02-17T06:49:29.853Z,12.85
2023-02-17T06:50:32.979Z,13.02
2023-02-17T06:51:36.096Z,11.80
2023-02-17T06:52:39.576Z,11.93
2023-02-17T06:53:42.699Z,9.73
2023-02-17T06:54:47.621Z,10.05
2023-02-17T06:55:50.741Z,11.05
2023-02-17T06:56:53.982Z,11.35
2023-02-17T06:57:57.590Z,10.73
2023-02-17T06:59:02.028Z,11.32
2023-02-17T07:00:07.069Z,9.32
2023-02-17T07:01:17.875Z,10.90
2023-02-17T07:03:24.358Z,9.85
2023-02-17T07:04:27.597Z,10.60
2023-02-17T07:05:30.963Z,10.00
2023-02-17T07:06:34.328Z,9.27
2023-02-17T07:07:37.928Z,9.63
2023-02-17T07:08:41.527Z,11.63
2023-02-17T07:09:44.768Z,8.65
2023-02-17T07:10:47.891Z,9.02
2023-02-17T07:11:51.613Z,9.75
2023-02-17T07:12:54.735Z,9.48
2023-02-17T07:13:58.461Z,8.45
2023-02-17T07:15:01.469Z,9.30
2023-02-17T07:16:05.170Z,8.60
2023-02-17T07:17:09.028Z,7.85
2023-02-17T07:18:11.785Z,8.38
2023-02-17T07:19:14.786Z,8.85
2023-02-17T07:20:17.667Z,9.02
2023-02-17T07:21:20.674Z,9.48
2023-02-17T07:22:25.713Z,9.38
2023-02-17T07:23:28.360Z,8.65
2023-02-17T07:24:31.356Z,8.60
2023-02-17T07:25:34.297Z,8.40
2023-02-17T07:26:38.078Z,7.18
2023-02-17T07:27:40.882Z,9.00
2023-02-17T07:28:43.603Z,9.13
2023-02-17T07:29:46.251Z,8.65
2023-02-17T07:30:48.787Z,8.15
2023-02-17T07:31:51.676Z,7.85
2023-02-17T07:32:54.177Z,9.07
2023-02-17T07:33:56.849Z,8.93
2023-02-17T07:34:59.369Z,8.75
2023-02-17T07:36:07.753Z,8.85
2023-02-17T07:37:10.417Z,10.18
2023-02-17T07:38:13.532Z,10.23
2023-02-17T07:39:16.776Z,11.13
2023-02-17T07:40:19.497Z,9.60
2023-02-17T07:41:25.056Z,8.77
2023-02-17T07:42:28.193Z,8.90
2023-02-17T07:43:30.812Z,9.00
2023-02-17T07:44:33.811Z,11.25
2023-02-17T07:45:36.367Z,11.05
2023-02-17T07:46:41.734Z,9.82
2023-02-17T07:47:44.374Z,10.35
2023-02-17T07:48:47.979Z,11.02
2023-02-17T07:49:50.623Z,10.32
2023-02-17T07:50:53.503Z,10.20
2023-02-17T07:51:56.275Z,10.65
2023-02-17T07:52:59.134Z,10.45
2023-02-17T07:54:02.498Z,10.65
2023-02-17T07:55:05.498Z,10.80
2023-02-17T07:56:11.017Z,12.52
2023-02-17T07:57:13.660Z,10.52
2023-02-17T07:58:16.404Z,10.73
2023-02-17T07:59:18.946Z,12.50
2023-02-17T08:00:21.703Z,12.23
2023-02-17T08:01:25.660Z,11.10
2023-02-17T08:02:28.307Z,11.30
2023-02-17T08:03:30.823Z,11.98
2023-02-17T08:04:33.373Z,12.85
2023-02-17T08:05:39.342Z,11.20
2023-02-17T08:06:41.867Z,13.90
2023-02-17T08:07:44.386Z,11.85
2023-02-17T08:09:06.604Z,11.75
2023-02-17T08:10:31.449Z,11.52
2023-02-17T08:11:53.171Z,13.07
2023-02-17T08:13:07.910Z,12.68
2023-02-17T08:14:12.857Z,11.68
2023-02-17T08:15:15.712Z,12.98
2023-02-17T08:16:18.375Z,12.43
2023-02-17T08:17:20.887Z,14.07
2023-02-17T08:18:23.517Z,13.75
2023-02-17T08:19:31.730Z,14.40
2023-02-17T08:20:42.136Z,13.32
2023-02-17T08:21:45.030Z,15.43
2023-02-17T08:22:47.659Z,15.27
2023-02-17T08:23:50.295Z,13.52
2023-02-17T08:24:54.500Z,14.18
2023-02-17T08:25:59.909Z,15.43
2023-02-17T08:27:02.776Z,14.68
2023-02-17T08:28:06.396Z,14.55
2023-02-17T08:29:09.253Z,15.27
2023-02-17T08:30:12.546Z,14.68
2023-02-17T08:31:21.025Z,14.40
2023-02-17T08:32:24.152Z,14.38
2023-02-17T08:33:27.026Z,15.43
2023-02-17T08:34:33.894Z,15.07
2023-02-17T08:35:36.888Z,15.40
2023-02-17T08:36:40.235Z,16.15
2023-02-17T08:37:43.254Z,15.98
2023-02-17T08:38:50.560Z,15.73
2023-02-17T08:39:54.038Z,16.30
2023-02-17T08:40:57.184Z,14.00
2023-02-17T08:42:00.883Z,15.65
2023-02-17T08:43:03.998Z,15.90
2023-02-17T08:44:15.782Z,14.88
2023-02-17T08:45:18.898Z,13.95
2023-02-17T08:46:22.661Z,14.73
2023-02-17T08:47:25.965Z,15.82
2023-02-17T08:48:29.209Z,15.55
2023-02-17T08:49:33.085Z,15.05
2023-02-17T08:50:36.445Z,13.45
2023-02-17T08:51:40.057Z,15.93
2023-02-17T08:52:43.132Z,14.02
2023-02-17T08:53:47.220Z,12.98
2023-02-17T08:54:52.622Z,15.35
2023-02-17T08:55:56.221Z,14.07
2023-02-17T08:56:59.341Z,13.55
2023-02-17T08:58:02.633Z,14.43
2023-02-17T08:59:08.287Z,13.10
2023-02-17T09:00:12.576Z,12.68
2023-02-17T09:01:16.792Z,14.82
2023-02-17T09:02:19.881Z,13.93
2023-02-17T09:03:23.376Z,15.90
2023-02-17T09:04:26.639Z,12.90
2023-02-17T09:05:29.994Z,14.65
2023-02-17T09:06:42.556Z,13.02
2023-02-17T09:07:45.697Z,13.88
2023-02-17T09:08:49.760Z,12.98
2023-02-17T09:09:52.910Z,14.90
2023-02-17T09:10:57.085Z,14.15
2023-02-17T09:12:00.334Z,13.95
2023-02-17T09:13:03.636Z,14.63
2023-02-17T09:14:07.894Z,13.05
2023-02-17T09:15:10.840Z,13.15
2023-02-17T09:16:14.044Z,13.80
2023-02-17T09:17:17.143Z,12.35
2023-02-17T09:18:22.794Z,15.00
2023-02-17T09:19:26.453Z,13.32
2023-02-17T09:20:29.347Z,13.75
2023-02-17T09:21:32.544Z,14.43
2023-02-17T09:22:35.560Z,13.80
2023-02-17T09:23:38.642Z,13.80
2023-02-17T09:24:41.279Z,12.35
2023-02-17T09:25:44.809Z,13.52
2023-02-17T09:26:47.325Z,13.30
2023-02-17T09:27:50.330Z,12.05
2023-02-17T09:28:53.061Z,14.90
2023-02-17T09:29:55.842Z,12.77
2023-02-17T09:30:58.511Z,12.52
2023-02-17T09:32:01.165Z,14.23
2023-02-17T09:33:05.492Z,11.75
2023-02-17T09:34:08.090Z,12.73
2023-02-17T09:35:15.999Z,12.15
2023-02-17T09:36:22.089Z,13.35
2023-02-17T09:37:25.153Z,12.57
2023-02-17T09:38:27.615Z,12.20
2023-02-17T09:39:30.296Z,13.35
2023-02-17T09:40:39.137Z,12.70
2023-02-17T09:41:52.154Z,11.95
2023-02-17T09:42:54.877Z,12.45
2023-02-17T09:43:57.936Z,12.55
2023-02-17T09:45:04.995Z,12.32
2023-02-17T09:46:12.102Z,12.55
2023-02-17T09:47:20.355Z,13.13
2023-02-17T09:48:29.340Z,11.02
2023-02-17T09:49:39.329Z,12.93
2023-02-17T09:50:48.306Z,10.25
2023-02-17T09:52:09.067Z,11.25
2023-02-17T09:53:45.312Z,11.18
2023-02-17T09:55:11.132Z,11.10
2023-02-17T09:56:19.741Z,13.43
2023-02-17T09:57:27.564Z,12.63
2023-02-17T09:58:36.543Z,10.57
2023-02-17T09:59:59.326Z,12.80
2023-02-17T10:01:06.422Z,10.63
2023-02-17T10:02:17.711Z,11.68
2023-02-17T10:03:31.332Z,12.57
2023-02-17T10:04:44.386Z,11.75
2023-02-17T10:05:54.155Z,11.93
2023-02-17T10:07:04.439Z,11.48
2023-02-17T10:08:16.420Z,12.45
2023-02-17T10:09:45.622Z,10.98
2023-02-17T10:11:04.699Z,12.25
2023-02-17T10:12:20.348Z,11.50
2023-02-17T10:13:24.935Z,11.85
2023-02-17T10:14:47.592Z,11.93
2023-02-17T10:15:53.387Z,12.80
2023-02-17T10:17:08.411Z,10.23
2023-02-17T10:18:20.188Z,10.35
2023-02-17T10:19:31.641Z,10.32
2023-02-17T10:20:39.708Z,11.32
2023-02-17T10:22:02.517Z,10.70
2023-02-17T10:23:16.572Z,10.57
2023-02-17T10:24:19.170Z,9.80
2023-02-17T10:25:39.445Z,10.45
2023-02-17T10:26:53.627Z,10.73
2023-02-17T10:28:10.109Z,10.40
2023-02-17T10:29:30.882Z,9.73
2023-02-17T10:30:41.544Z,9.40
2023-02-17T10:31:45.923Z,9.52
2023-02-17T10:33:01.059Z,10.38
2023-02-17T10:34:10.308Z,10.68
2023-02-17T10:35:22.426Z,12.15
2023-02-17T10:36:56.275Z,10.30
2023-02-17T10:38:15.520Z,10.93
2023-02-17T10:39:44.643Z,10.80
2023-02-17T10:40:51.481Z,10.15
2023-02-17T10:41:55.672Z,9.90
2023-02-17T10:43:07.062Z,7.78
2023-02-17T10:44:19.680Z,8.55
2023-02-17T10:45:38.638Z,8.35
2023-02-17T10:46:44.325Z,10.30
2023-02-17T10:47:48.122Z,10.60
2023-02-17T10:48:53.897Z,9.32
2023-02-17T10:49:58.926Z,9.55
2023-02-17T10:51:02.412Z,9.02
2023-02-17T10:52:19.928Z,9.23
2023-02-17T10:53:26.310Z,7.78
2023-02-17T10:54:43.332Z,9.10
2023-02-17T10:55:58.945Z,9.40
2023-02-17T10:57:04.232Z,9.02
2023-02-17T10:58:22.579Z,7.70
2023-02-17T10:59:40.709Z,9.10
2023-02-17T11:00:43.906Z,9.93
2023-02-17T11:01:47.308Z,7.82
2023-02-17T11:02:52.716Z,8.00
2023-02-17T11:04:05.506Z,9.18
2023-02-17T11:05:20.916Z,8.65
2023-02-17T11:06:24.398Z,9.55
2023-02-17T11:07:39.877Z,7.93
2023-02-17T11:08:59.321Z,7.80
2023-02-17T11:10:05.681Z,7.90
2023-02-17T11:11:19.120Z,6.82
2023-02-17T11:12:42.778Z,7.50
2023-02-17T11:14:10.648Z,8.68
2023-02-17T11:15:22.491Z,7.88
2023-02-17T11:16:40.763Z,7.47
2023-02-17T11:17:44.814Z,8.10
2023-02-17T11:18:49.385Z,7.57
2023-02-17T11:19:58.873Z,8.48
2023-02-17T11:21:07.748Z,7.57
2023-02-17T11:22:41.226Z,6.93
2023-02-17T11:23:57.086Z,6.93
2023-02-17T11:25:01.505Z,8.82
2023-02-17T11:26:11.275Z,5.93
2023-02-17T11:27:26.762Z,7.47
2023-02-17T11:28:29.640Z,6.68
2023-02-17T11:29:34.220Z,7.93
2023-02-17T11:30:40.082Z,7.65
2023-02-17T11:31:43.017Z,7.07
2023-02-17T11:32:45.807Z,8.15
2023-02-17T11:33:48.499Z,7.80
2023-02-17T11:34:58.098Z,6.43
2023-02-17T11:36:02.023Z,7.15
2023-02-17T11:37:04.694Z,6.93
2023-02-17T11:38:22.339Z,6.65
2023-02-17T11:39:25.342Z,6.60
2023-02-17T11:40:31.052Z,7.28
2023-02-17T11:41:42.823Z,6.78
2023-02-17T11:42:55.941Z,6.35
2023-02-17T11:44:00.132Z,6.97
2023-02-17T11:45:17.773Z,6.22
2023-02-17T11:46:44.502Z,7.55
2023-02-17T11:48:09.743Z,7.03
2023-02-17T11:49:40.001Z,6.35
2023-02-17T11:50:56.184Z,7.00
2023-02-17T11:52:17.395Z,5.28
2023-02-17T11:53:38.560Z,5.85
2023-02-17T11:55:15.982Z,6.28
2023-02-17T11:56:22.584Z,5.47
2023-02-17T11:57:54.262Z,6.55
2023-02-17T11:59:08.926Z,6.15
2023-02-17T12:00:27.023Z,6.95
2023-02-17T12:01:48.027Z,6.65
2023-02-17T12:04:31.950Z,5.25
2023-02-17T12:06:09.510Z,5.50
2023-02-17T12:07:15.264Z,5.63
2023-02-17T12:08:33.987Z,5.63
2023-02-17T12:09:54.409Z,6.38
2023-02-17T12:11:12.506Z,5.40
2023-02-17T12:12:57.990Z,6.35
2023-02-17T12:14:18.751Z,6.50
2023-02-17T12:15:49.228Z,5.82
2023-02-17T12:17:03.152Z,5.88
2023-02-17T12:18:15.036Z,4.70
2023-02-17T12:19:37.112Z,5.03
2023-02-17T12:21:14.918Z,4.88
2023-02-17T12:22:37.357Z,5.63
2023-02-17T12:24:10.603Z,6.00
2023-02-17T12:25:35.922Z,5.47
2023-02-17T12:26:53.206Z,6.15
2023-02-17T12:28:23.087Z,5.82
2023-02-17T12:29:33.056Z,5.18
2023-02-17T12:30:46.268Z,5.77
2023-02-17T12:32:07.742Z,4.55
2023-02-17T12:33:33.419Z,4.90
2023-02-17T12:34:53.130Z,5.18
2023-02-17T12:36:10.261Z,5.30
2023-02-17T12:37:27.304Z,5.68
2023-02-17T12:39:34.508Z,4.80
2023-02-17T12:40:37.508Z,4.47
2023-02-17T12:41:53.950Z,5.30
2023-02-17T12:43:03.555Z,4.00
2023-02-17T12:44:21.560Z,4.15
2023-02-17T12:45:34.399Z,4.40
2023-02-17T12:46:43.900Z,4.05
2023-02-17T12:48:07.432Z,4.60
2023-02-17T12:49:14.722Z,6.50
2023-02-17T12:50:27.688Z,4.32
2023-02-17T12:51:45.209Z,3.58
2023-02-17T12:52:54.450Z,3.88
2023-02-17T12:54:05.016Z,3.50
2023-02-17T12:55:10.777Z,3.47
2023-02-17T12:56:25.898Z,3.88
2023-02-17T12:57:35.376Z,4.07
2023-02-17T12:58:38.617Z,4.40
2023-02-17T12:59:44.745Z,4.10
2023-02-17T13:00:55.706Z,4.47
2023-02-17T13:03:06.593Z,3.15
2023-02-17T13:04:17.030Z,4.22
2023-02-17T13:05:30.600Z,3.25
2023-02-17T13:06:40.193Z,3.25
2023-02-17T13:08:06.956Z,3.53
2023-02-17T13:09:21.958Z,3.42
2023-02-17T13:10:28.090Z,3.75
2023-02-17T13:11:36.490Z,3.53
2023-02-17T13:12:41.297Z,3.42
2023-02-17T13:13:44.650Z,3.22
2023-02-17T13:14:51.133Z,3.08
2023-02-17T13:19:07.939Z,3.45
2023-02-17T13:20:10.700Z,3.58
2023-02-17T13:21:24.984Z,3.20
2023-02-17T13:22:27.623Z,3.10
2023-02-17T13:23:35.443Z,3.03
2023-02-17T13:24:51.266Z,2.80
2023-02-17T13:26:23.907Z,2.53
2023-02-17T13:27:30.394Z,3.65
2023-02-17T13:28:39.636Z,2.65
2023-02-17T13:29:42.277Z,2.35
2023-02-17T13:30:48.397Z,3.05
2023-02-17T13:32:02.752Z,2.55
2023-02-17T13:33:15.400Z,3.20
2023-02-17T13:34:34.889Z,2.30
2023-02-17T13:35:37.630Z,2.08
2023-02-17T13:36:40.256Z,2.25
2023-02-17T13:37:46.053Z,2.55
2023-02-17T13:38:59.847Z,2.28
2023-02-17T13:40:15.808Z,2.80
2023-02-17T13:41:18.334Z,2.08
2023-02-17T13:42:35.372Z,2.42
2023-02-17T13:43:42.413Z,2.20
2023-02-17T13:44:47.216Z,1.80
2023-02-17T13:45:57.545Z,2.75
2023-02-17T13:47:05.249Z,2.40
2023-02-17T13:48:19.892Z,2.38
2023-02-17T13:49:27.909Z,2.35
2023-02-17T13:50:37.915Z,2.15
2023-02-17T13:51:40.415Z,2.40
2023-02-17T13:52:44.026Z,2.30
2023-02-17T13:53:50.494Z,1.92
2023-02-17T13:54:53.865Z,2.60
2023-02-17T13:56:05.628Z,2.28
2023-02-17T13:57:23.256Z,2.92
2023-02-17T13:58:32.747Z,1.70
2023-02-17T13:59:38.259Z,2.75
2023-02-17T14:00:44.164Z,3.13
2023-02-17T14:01:47.541Z,2.35
2023-02-17T14:02:59.394Z,1.80
2023-02-17T14:04:02.028Z,2.50
2023-02-17T14:05:30.828Z,1.88
2023-02-17T14:06:37.806Z,1.60
2023-02-17T14:07:40.422Z,2.10
2023-02-17T14:08:43.661Z,3.22
2023-02-17T14:09:54.102Z,1.38
2023-02-17T14:10:57.347Z,1.92
2023-02-17T14:12:03.255Z,1.98
2023-02-17T14:13:10.795Z,1.65
2023-02-17T14:14:13.425Z,1.80
2023-02-17T14:15:27.716Z,1.90
2023-02-17T14:16:35.025Z,1.85
2023-02-17T14:17:37.551Z,1.83
2023-02-17T14:18:44.398Z,1.83
2023-02-17T14:19:49.496Z,2.15
2023-02-17T14:21:05.153Z,1.30
2023-02-17T14:22:08.037Z,1.75
2023-02-17T14:23:13.699Z,1.23
2023-02-17T14:24:27.956Z,1.35
2023-02-17T14:25:32.399Z,1.83
2023-02-17T14:26:47.759Z,1.00
2023-02-17T14:27:51.256Z,1.50
2023-02-17T14:29:05.167Z,1.35
2023-02-17T14:30:12.860Z,1.25
2023-02-17T14:31:20.400Z,0.95
2023-02-17T14:32:30.382Z,1.80
2023-02-17T14:33:33.137Z,1.87
2023-02-17T14:34:37.106Z,1.23
2023-02-17T14:35:53.534Z,1.80
2023-02-17T14:37:09.979Z,2.17
2023-02-17T14:38:27.869Z,1.00
2023-02-17T14:39:31.112Z,1.80
2023-02-17T14:40:34.840Z,1.48
2023-02-17T14:41:37.967Z,1.20
2023-02-17T14:42:40.949Z,1.30
2023-02-17T14:43:44.098Z,1.40
2023-02-17T14:44:47.191Z,1.50
2023-02-17T14:45:51.280Z,1.20